Skip Navigation Links
NOAA logo - Click to go to the NOAA homepage
NOAA's National Weather Service
Alaska Aviation Weather Unit
  NWS logo - Click to go to the NWS homepage
Left Navbar Graphic     22 AKDT = 06 GMT

   
NOAA is celebrating 200 years of science, service, and stewardship. Visit the NOAA 200th celebration Web site to learn more.
USA.gov is the U.S. Government's official Web portal to all Federal, state and local government Web resources and services.
Facebook
NWS on Facebook

Important Change Regarding the AAWU Web Presence

 

Over the last several months, the AAWU has been working to navigate its webpages to a nationally supported server. Security, as well as other needs, have necessitated the change.  We have been given an extension for the site changeover while we diligently work at addressing feedback received. As of July 14, 2017, aawu.arh.noaa.gov will be discontinued. The new AAWU web address is weather.gov/aawu. It is now live and will run in-parallel with the old site until it is discontinued on July 14, 2017. Please continue to send any feedback or questions regarding the new webpages to nws.ar.aawu.webauthors@noaa.gov.  Thank you for your patience during this time of transition.
AAWU Home :: Display TAF Add Bookmark
TAF PATK 260537Z 2606/2706 05005KT P6SM SCT020 OVC050
      TEMPO 2606/2608 -RA BKN020
     FM260800 VRB03KT 4SM -RA BR SCT008 OVC012
     FM261800 24005KT P6SM SCT015 OVC030
     FM262100 20007KT P6SM SCT030 BKN060=

METAR PATK 260053Z 00000KT 10SM OVC028 15/12 A2995 RMK AO2 SLP143 T01500117= PATK 260140Z AUTO 00000KT 10SM FEW014 BKN035 OVC042 15/13 A2994= METAR PATK 260153Z AUTO 00000KT 10SM FEW021 BKN033 OVC043 15/12 A2994 RMK AO2 RAB13E28 SLP140 P0000 T01500122 TSNO= PATK 260229Z AUTO 03004KT 10SM BKN027 BKN036 OVC047 15/12 A2993= METAR PATK 260253Z AUTO 06005KT 10SM BKN023 OVC055 15/12 A2993 RMK AO2 SLP137 60000 T01500122 56010 TSNO= PATK 260303Z AUTO 04005KT 10SM SCT023 BKN038 OVC060 15/12 A2993= METAR PATK 260353Z AUTO 00000KT 10SM SCT019 BKN027 OVC060 15/12 A2992 RMK AO2 SLP133 T01500122 TSNO= PATK 260415Z AUTO 00000KT 10SM FEW020 BKN030 OVC055 15/13 A2991= PATK 260427Z AUTO 00000KT 10SM BKN028 OVC055 15/13 A2991= METAR PATK 260453Z AUTO 00000KT 10SM BKN026 OVC060 15/13 A2991 RMK AO2 SLP130 T01500128 TSNO= PATK 260504Z AUTO 00000KT 10SM SCT026 OVC065 15/13 A2991= METAR PATK 260553Z AUTO 00000KT 10SM FEW029 BKN037 OVC075 15/13 A2991 RMK AO2 SLP129 60000 T01500128 10150 20150 56008 TSNO=
 Alaska TAF Map

NOAA's National Weather Service
Alaska Aviation Weather Unit
6930 Sand Lake Road
Anchorage, AK 99502-1845
Disclaimer
Credits
Glossary
Privacy Policy
About Us
Career Opportunities
Contact AAWU Internet Services Site last modified: April, 17th 2012